»·PEaware :: AAL16 KLAX-KLAS

AAL16 :: KLAX-KLAS

FLIGHT INFORMATION

Flight Status: Arrived
Operator:
American Airlines
More flights by this operator :: More flights under this callsign
Pilot: Jordan S. (14404)
Aircraft: BOEING 737-800
(B738)
More flights by this aircraft type
Origin: KLAX Los Angeles Intl
United States
Destination: KLAS McCarran Intl
United States
More flights between these airports :: More routes between these airports
Route: +ORCKA2 MISEN KEPEC6
File this flight plan on PilotEdge
Remarks:
Altitude:
(Current/Filed)
29,000ft
Speed:
(Current/Filed)
600kts
Departed: 03-Jan-18 10:02 PM
Arrived: 03-Jan-18 10:48 PM
Distance/Time
Traveled:
205nm/0:46
Distance/Time
To Go:
Arrived

Flight Plot

Page will automatically refresh every two minutes.

Flight plan parsing failed; only flown route is shown


Map Options




Map Legend


Flown Route
Filed Route
Departure Airport
Arrival Airport
Navaid (VOR, NDB)
Fix

Horizontal Profiles

Position Reports

Time Latitude Longitude Heading Altitude Ground
Speed
03-Jan-18 22:01 33.947202 -118.400700 266 133ft 0kts
03-Jan-18 22:02 33.947202 -118.400700 266 133ft 0kts
03-Jan-18 22:03 33.947202 -118.400700 266 133ft 0kts
03-Jan-18 22:04 33.947142 -118.399971 314 133ft 0kts
03-Jan-18 22:05 33.948143 -118.400083 345 133ft 6kts
03-Jan-18 22:06 33.949141 -118.401310 306 133ft 0kts
03-Jan-18 22:07 33.950075 -118.402663 265 133ft 15kts
03-Jan-18 22:08 33.946199 -118.446334 262 924ft 195kts
03-Jan-18 22:09 33.938935 -118.513170 262 2775ft 207kts
03-Jan-18 22:10 33.930415 -118.582783 246 4743ft 214kts
03-Jan-18 22:11 33.873720 -118.600806 149 6875ft 254kts
03-Jan-18 22:12 33.854727 -118.532906 67 8728ft 261kts
03-Jan-18 22:13 33.902466 -118.457798 42 10616ft 321kts
03-Jan-18 22:14 33.970199 -118.379471 60 12346ft 362kts
03-Jan-18 22:15 34.024501 -118.271574 56 14071ft 384kts
03-Jan-18 22:16 34.085398 -118.163702 55 15783ft 393kts
03-Jan-18 22:17 34.147501 -118.053756 55 17680ft 404kts
03-Jan-18 22:18 34.211494 -117.939542 55 19892ft 418kts
03-Jan-18 22:19 34.277574 -117.821751 55 22102ft 435kts
03-Jan-18 22:20 34.347658 -117.696851 55 24332ft 460kts
03-Jan-18 22:21 34.423063 -117.569281 54 26542ft 475kts
03-Jan-18 22:22 34.500235 -117.438038 54 26999ft 478kts
03-Jan-18 22:23 34.577315 -117.307104 54 26999ft 478kts
03-Jan-18 22:24 34.654496 -117.176125 54 27000ft 478kts
03-Jan-18 22:25 34.732029 -117.044838 54 27000ft 478kts
03-Jan-18 22:26 34.809744 -116.913454 54 26999ft 477kts
03-Jan-18 22:27 34.885499 -116.785614 53 27000ft 466kts
03-Jan-18 22:28 34.960035 -116.656773 55 27000ft 467kts
03-Jan-18 22:29 35.028179 -116.535522 55 26339ft 405kts
03-Jan-18 22:30 35.090292 -116.425285 55 24237ft 392kts
03-Jan-18 22:31 35.161112 -116.329511 45 22650ft 378kts
03-Jan-18 22:32 35.233681 -116.238069 46 21257ft 371kts
03-Jan-18 22:33 35.304619 -116.148297 46 19893ft 364kts
03-Jan-18 22:34 35.374163 -116.060317 45 18556ft 356kts
03-Jan-18 22:35 35.431105 -115.988337 45 17462ft 350kts
03-Jan-18 22:36 35.509266 -115.889621 45 15962ft 342kts
03-Jan-18 22:37 35.574935 -115.806761 45 14703ft 336kts
03-Jan-18 22:38 35.638617 -115.726479 45 13476ft 313kts
03-Jan-18 22:39 35.708430 -115.658863 35 13296ft 331kts
03-Jan-18 22:40 35.783175 -115.593434 35 13293ft 329kts
03-Jan-18 22:41 35.857586 -115.528144 35 12974ft 329kts
03-Jan-18 22:42 35.919078 -115.474073 35 12195ft 324kts
03-Jan-18 22:43 35.989939 -115.411631 35 11281ft 296kts
03-Jan-18 22:44 36.024341 -115.332029 90 10292ft 271kts
03-Jan-18 22:45 36.020818 -115.241202 94 9217ft 262kts
03-Jan-18 22:46 36.014066 -115.137359 94 8221ft 258kts
03-Jan-18 22:47 36.008599 -115.061507 95 6726ft 277kts
03-Jan-18 22:48 36.000485 -114.966864 96 5458ft 262kts
03-Jan-18 22:49 36.024426 -114.894852 7 4167ft 236kts
03-Jan-18 22:50 36.072593 -114.932876 302 3228ft 195kts
03-Jan-18 22:51 36.072347 -114.995134 266 2585ft 194kts
03-Jan-18 22:52 36.073146 -115.061007 267 2892ft 185kts
03-Jan-18 22:53 36.073641 -115.121404 270 2260ft 165kts
03-Jan-18 22:54 36.074362 -115.149813 296 2149ft 19kts
03-Jan-18 22:55 36.075291 -115.151339 332 2149ft 14kts
03-Jan-18 22:56 36.079108 -115.153578 334 2149ft 18kts

Navigation Log

Ident Type
Flight plan parsing failed, navigation log unavailable